Time;durP1;ratioP1;P1;durP2;ratioP2;P2;SDS_P1;SDS_P2;PMS_P1;PMS_P2;Temp;Humidity;BMP_temperature;BMP_pressure;BME280_temperature;BME280_humidity;BME280_pressure;Samples;Min_cycle;Max_cycle;Signal;HPM_P1;HPM_P2
2024/04/19 00:00:52;;;;;;;2.25;1.02;;;7.40;96.60;;;;;;5382521;26;20082;-80
2024/04/19 00:03:20;;;;;;;2.08;0.95;;;7.40;96.80;;;;;;5383686;26;20000;-80
2024/04/19 00:05:47;;;;;;;4.53;1.45;;;7.40;97.20;;;;;;5353194;26;20015;-79
2024/04/19 00:08:33;;;;;;;5.13;1.13;;;7.40;97.70;;;;;;5357228;26;20045;-80
2024/04/19 00:11:00;;;;;;;2.70;1.15;;;7.30;97.70;;;;;;5382016;26;20000;-80
2024/04/19 00:13:27;;;;;;;4.68;1.80;;;7.30;97.80;;;;;;5381847;26;20002;-80
2024/04/19 00:15:57;;;;;;;5.45;1.70;;;7.30;98.40;;;;;;5352795;26;19997;-79
2024/04/19 00:18:27;;;;;;;3.53;1.75;;;7.30;98.60;;;;;;5354254;26;20016;-79
2024/04/19 00:20:56;;;;;;;4.75;2.83;;;7.30;98.80;;;;;;5380912;26;20008;-79
2024/04/19 00:23:23;;;;;;;6.63;2.38;;;7.30;98.80;;;;;;5410346;26;20012;-79
2024/04/19 00:25:53;;;;;;;7.55;3.35;;;7.30;99.40;;;;;;5383209;26;20133;-79
2024/04/19 00:28:39;;;;;;;4.80;2.50;;;7.30;99.70;;;;;;5374472;26;20365;-81
2024/04/19 00:31:06;;;;;;;5.32;3.03;;;7.30;99.90;;;;;;5381432;26;20525;-80
2024/04/19 00:33:34;;;;;;;5.80;2.85;;;7.30;99.90;;;;;;5381292;26;20000;-80
2024/04/19 00:36:05;;;;;;;6.38;2.58;;;7.30;99.90;;;;;;5382910;26;20008;-80
2024/04/19 00:38:32;;;;;;;5.07;2.65;;;7.30;99.90;;;;;;5383124;26;20398;-80
2024/04/19 00:41:02;;;;;;;5.63;2.40;;;7.30;99.90;;;;;;5375471;26;20323;-80
2024/04/19 00:43:29;;;;;;;5.85;2.70;;;7.30;99.90;;;;;;5370419;26;20047;-81
2024/04/19 00:45:56;;;;;;;7.05;2.88;;;7.30;99.90;;;;;;5381239;26;20015;-81
2024/04/19 00:48:25;;;;;;;5.25;2.25;;;7.30;99.90;;;;;;5383219;26;20015;-82
2024/04/19 00:51:00;;;;;;;6.15;2.55;;;7.20;99.90;;;;;;5352168;26;20051;-82
2024/04/19 00:53:32;;;;;;;5.35;2.60;;;7.30;99.90;;;;;;5381173;26;20447;-82
2024/04/19 00:56:19;;;;;;;7.63;3.05;;;7.30;99.90;;;;;;5379881;26;20014;-81
2024/04/19 00:58:47;;;;;;;4.95;2.63;;;7.30;99.90;;;;;;5381197;26;20070;-80
2024/04/19 01:01:14;;;;;;;4.07;1.98;;;7.30;99.90;;;;;;5381117;26;20446;-80
2024/04/19 01:03:45;;;;;;;4.72;2.63;;;7.20;99.90;;;;;;5352460;26;20383;-81
2024/04/19 01:06:15;;;;;;;4.80;2.38;;;7.30;99.90;;;;;;5381885;26;20436;-79
2024/04/19 01:08:45;;;;;;;10.18;3.70;;;7.30;99.90;;;;;;5381050;26;20000;-80
2024/04/19 01:11:28;;;;;;;7.30;4.35;;;7.30;99.90;;;;;;5380862;26;20001;-78
2024/04/19 01:13:55;;;;;;;6.25;3.65;;;7.30;99.90;;;;;;5381166;26;20007;-79
2024/04/19 01:16:23;;;;;;;7.97;3.80;;;7.20;99.90;;;;;;5381123;26;20006;-79
2024/04/19 01:18:55;;;;;;;5.65;3.53;;;7.30;99.90;;;;;;5352373;26;20023;-79
2024/04/19 01:21:24;;;;;;;5.88;3.22;;;7.30;99.90;;;;;;5380810;26;20012;-79
2024/04/19 01:24:13;;;;;;;7.70;3.33;;;7.30;99.90;;;;;;5382926;26;20011;-77
2024/04/19 01:26:40;;;;;;;5.95;3.25;;;7.30;99.90;;;;;;5382810;26;20069;-78
2024/04/19 01:29:08;;;;;;;7.65;4.20;;;7.30;99.90;;;;;;5374644;26;20028;-78
2024/04/19 01:31:36;;;;;;;8.98;3.42;;;7.30;99.90;;;;;;5369421;26;20138;-78
2024/04/19 01:34:03;;;;;;;6.85;3.42;;;7.30;99.90;;;;;;5379818;26;20019;-78
2024/04/19 01:36:30;;;;;;;6.57;3.20;;;7.40;99.90;;;;;;5323035;26;20000;-80
2024/04/19 01:38:57;;;;;;;7.07;3.67;;;7.40;99.90;;;;;;5380795;26;20011;-79
2024/04/19 01:41:24;;;;;;;7.15;3.33;;;7.40;99.90;;;;;;5380491;26;20051;-79
2024/04/19 01:43:51;;;;;;;5.95;2.70;;;7.40;99.90;;;;;;5352137;26;19996;-78
2024/04/19 01:46:18;;;;;;;6.05;3.15;;;7.40;99.90;;;;;;5351948;26;20086;-78
2024/04/19 01:48:46;;;;;;;5.20;3.10;;;7.50;99.90;;;;;;5351319;26;20003;-78
2024/04/19 01:51:13;;;;;;;4.63;2.50;;;7.50;99.90;;;;;;5345398;26;20025;-78
2024/04/19 01:53:40;;;;;;;3.85;2.40;;;7.50;99.90;;;;;;5368382;26;19996;-78
2024/04/19 01:56:07;;;;;;;4.93;2.47;;;7.50;99.90;;;;;;5380139;26;20073;-79
2024/04/19 01:58:40;;;;;;;5.90;3.00;;;7.50;99.90;;;;;;5381894;26;20363;-79
2024/04/19 02:01:07;;;;;;;5.93;2.63;;;7.50;99.90;;;;;;5351279;26;20000;-79
2024/04/19 02:03:34;;;;;;;5.10;2.72;;;7.50;99.90;;;;;;5380057;26;20011;-80
2024/04/19 02:06:12;;;;;;;4.47;2.10;;;7.60;99.90;;;;;;5380255;26;20000;-79
2024/04/19 02:08:40;;;;;;;5.80;2.00;;;7.60;99.90;;;;;;5409568;26;19996;-80
2024/04/19 02:11:07;;;;;;;5.97;2.22;;;7.60;99.90;;;;;;5380118;26;20065;-81
2024/04/19 02:13:37;;;;;;;6.47;2.85;;;7.60;99.90;;;;;;5379867;26;20332;-80
2024/04/19 02:16:06;;;;;;;7.10;3.00;;;7.60;99.90;;;;;;5350889;26;20000;-81
2024/04/19 02:18:33;;;;;;;6.00;2.60;;;7.60;99.90;;;;;;5379688;26;20000;-81
2024/04/19 02:21:00;;;;;;;4.95;2.45;;;7.60;99.90;;;;;;5374430;26;20331;-80
2024/04/19 02:23:36;;;;;;;6.25;2.95;;;7.60;99.90;;;;;;5380092;26;20398;-81
2024/04/19 02:26:04;;;;;;;5.93;3.00;;;7.60;99.90;;;;;;5380301;26;20005;-81
2024/04/19 02:31:19;;;;;;;6.72;3.55;;;7.60;99.90;;;;;;5380426;26;20000;-81
2024/04/19 02:33:47;;;;;;;4.93;2.83;;;7.60;99.90;;;;;;5379863;26;20414;-80
2024/04/19 02:36:15;;;;;;;3.75;2.25;;;7.60;99.90;;;;;;5379583;26;20073;-80
2024/04/19 02:38:45;;;;;;;5.90;3.38;;;7.60;99.90;;;;;;5409044;26;20007;-81
2024/04/19 02:41:12;;;;;;;6.32;3.03;;;7.60;99.90;;;;;;5381375;26;20452;-80
2024/04/19 02:43:46;;;;;;;6.70;3.58;;;7.70;99.90;;;;;;5379388;26;20496;-81
2024/04/19 02:46:15;;;;;;;10.52;4.40;;;7.70;99.90;;;;;;5382647;26;20073;-82
2024/04/19 02:48:51;;;;;;;6.75;4.25;;;7.60;99.90;;;;;;5384697;26;20012;-79
2024/04/19 02:51:19;;;;;;;7.60;3.95;;;7.60;99.90;;;;;;5412441;26;19996;-81
2024/04/19 02:53:47;;;;;;;9.88;5.72;;;7.60;99.90;;;;;;5383255;26;20375;-80
2024/04/19 02:56:14;;;;;;;7.43;4.68;;;7.60;99.90;;;;;;5383502;26;20031;-81
2024/04/19 02:58:42;;;;;;;6.47;4.13;;;7.60;99.90;;;;;;5382796;26;20363;-81
2024/04/19 03:01:11;;;;;;;7.65;3.75;;;7.50;99.90;;;;;;5382624;26;20000;-81
2024/04/19 03:03:38;;;;;;;6.57;4.30;;;7.50;99.90;;;;;;5384749;26;20000;-81
2024/04/19 03:06:06;;;;;;;7.90;3.63;;;7.50;99.90;;;;;;5382814;26;20000;-79
2024/04/19 03:08:33;;;;;;;7.15;3.88;;;7.60;99.90;;;;;;5382736;26;20440;-80
2024/04/19 03:11:06;;;;;;;7.10;4.00;;;7.60;99.90;;;;;;5353455;26;20011;-79
2024/04/19 03:13:33;;;;;;;7.43;3.92;;;7.60;99.90;;;;;;5382834;26;20074;-79
2024/04/19 03:16:07;;;;;;;10.05;4.20;;;7.60;99.90;;;;;;5354131;26;20460;-79
2024/04/19 03:18:41;;;;;;;7.15;4.30;;;7.60;99.90;;;;;;5382764;26;20015;-79
2024/04/19 03:21:08;;;;;;;9.88;4.85;;;7.60;99.90;;;;;;5384137;26;20020;-79
2024/04/19 03:23:36;;;;;;;6.45;4.10;;;7.60;99.90;;;;;;5384116;26;20012;-79
2024/04/19 03:26:04;;;;;;;8.00;4.10;;;7.60;99.90;;;;;;5384440;26;19996;-79
2024/04/19 03:28:31;;;;;;;9.77;5.03;;;7.60;99.90;;;;;;5405364;26;20004;-79
2024/04/19 03:30:58;;;;;;;9.30;5.03;;;7.60;99.90;;;;;;5382512;26;20065;-79
2024/04/19 03:33:25;;;;;;;7.47;5.03;;;7.60;99.90;;;;;;5382441;26;20000;-79
2024/04/19 03:35:52;;;;;;;6.10;4.50;;;7.60;99.90;;;;;;5359308;26;20011;-78
2024/04/19 03:38:21;;;;;;;10.05;5.35;;;7.60;99.90;;;;;;5324584;26;20008;-78
2024/04/19 03:40:53;;;;;;;6.22;4.60;;;7.60;99.90;;;;;;5382202;26;20018;-78
2024/04/19 03:43:21;;;;;;;7.53;4.78;;;7.60;99.90;;;;;;5382198;26;20326;-80
2024/04/19 03:45:48;;;;;;;7.35;4.63;;;7.60;99.90;;;;;;5381983;26;20001;-80
2024/04/19 03:48:16;;;;;;;6.70;4.38;;;7.60;99.90;;;;;;5353346;26;20518;-79
2024/04/19 03:50:46;;;;;;;5.80;4.25;;;7.60;99.90;;;;;;5383691;26;20008;-80
2024/04/19 03:53:13;;;;;;;5.60;3.65;;;7.60;99.90;;;;;;5382525;26;20346;-79
2024/04/19 03:55:40;;;;;;;5.90;4.10;;;7.60;99.90;;;;;;5382274;26;20012;-79
2024/04/19 03:58:07;;;;;;;6.40;4.47;;;7.60;99.90;;;;;;5382019;26;19996;-79
2024/04/19 04:00:39;;;;;;;7.68;4.55;;;7.60;99.90;;;;;;5381822;26;20008;-78
2024/04/19 04:03:06;;;;;;;7.13;5.72;;;7.60;99.90;;;;;;5382253;26;20011;-78
2024/04/19 04:05:38;;;;;;;7.50;5.72;;;7.60;99.90;;;;;;5375023;26;20005;-78
2024/04/19 04:08:05;;;;;;;9.45;6.18;;;7.60;99.90;;;;;;5357360;26;19996;-79
2024/04/19 04:10:35;;;;;;;8.00;5.20;;;7.60;99.90;;;;;;5381672;26;20012;-79
2024/04/19 04:13:03;;;;;;;9.02;6.47;;;7.60;99.90;;;;;;5381557;26;20008;-79
2024/04/19 04:15:30;;;;;;;6.90;5.55;;;7.60;99.90;;;;;;5353115;26;20077;-80
2024/04/19 04:18:01;;;;;;;7.70;6.10;;;7.70;99.90;;;;;;5324082;26;20448;-80
2024/04/19 04:20:29;;;;;;;8.43;6.75;;;7.70;99.90;;;;;;5381759;26;20000;-81
2024/04/19 04:22:56;;;;;;;7.95;6.50;;;7.70;99.90;;;;;;5381188;26;20000;-80
2024/04/19 04:25:23;;;;;;;7.70;5.85;;;7.70;99.90;;;;;;5352818;26;19996;-80
2024/04/19 04:27:51;;;;;;;8.35;6.07;;;7.70;99.90;;;;;;5381541;26;20000;-81
2024/04/19 04:30:18;;;;;;;8.45;6.57;;;7.70;99.90;;;;;;5381983;26;20000;-81
2024/04/19 04:32:45;;;;;;;7.95;6.75;;;7.70;99.90;;;;;;5381523;26;20025;-81
2024/04/19 04:35:12;;;;;;;8.73;6.72;;;7.70;99.90;;;;;;5352466;26;20471;-81
2024/04/19 04:37:39;;;;;;;8.23;5.72;;;7.70;99.90;;;;;;5381496;26;20008;-80
2024/04/19 04:40:07;;;;;;;7.68;5.93;;;7.70;99.90;;;;;;5381748;26;20444;-80
2024/04/19 04:42:34;;;;;;;6.60;5.22;;;7.70;99.90;;;;;;5352816;26;20011;-80
2024/04/19 04:45:05;;;;;;;7.90;5.40;;;7.80;99.90;;;;;;5381168;26;20008;-81
2024/04/19 04:47:32;;;;;;;8.88;5.55;;;7.80;99.90;;;;;;5381283;26;20023;-81
2024/04/19 04:50:00;;;;;;;7.65;5.70;;;7.80;99.90;;;;;;5381342;26;20000;-82
2024/04/19 04:52:27;;;;;;;7.18;5.10;;;7.80;99.90;;;;;;5352456;26;20069;-82
2024/04/19 04:54:54;;;;;;;7.03;5.35;;;7.80;99.90;;;;;;5381222;26;20001;-82
2024/04/19 04:57:21;;;;;;;5.80;5.05;;;7.90;99.90;;;;;;5370539;26;20099;-81
2024/04/19 04:59:49;;;;;;;5.40;4.47;;;7.90;99.90;;;;;;5375136;26;20060;-83
2024/04/19 05:02:16;;;;;;;6.20;4.68;;;7.90;99.90;;;;;;5399721;26;20004;-82
2024/04/19 05:04:44;;;;;;;6.60;4.32;;;7.90;99.90;;;;;;5352054;26;20008;-84
2024/04/19 05:07:12;;;;;;;4.90;3.65;;;8.00;99.90;;;;;;5352370;26;20037;-83
2024/04/19 05:09:39;;;;;;;5.25;3.85;;;8.00;99.90;;;;;;5380903;26;20005;-82
2024/04/19 05:12:08;;;;;;;4.55;3.45;;;8.00;99.90;;;;;;5381260;26;20012;-82
2024/04/19 05:14:37;;;;;;;5.50;3.92;;;8.00;99.90;;;;;;5380862;26;20330;-83
2024/04/19 05:17:07;;;;;;;5.60;4.15;;;8.10;99.90;;;;;;5351958;26;20025;-83
2024/04/19 05:19:35;;;;;;;5.63;4.32;;;8.10;99.90;;;;;;5380957;26;20033;-82
2024/04/19 05:22:04;;;;;;;5.00;3.58;;;8.10;99.90;;;;;;5382653;26;20014;-81
2024/04/19 05:24:31;;;;;;;5.13;3.70;;;8.20;99.90;;;;;;5380717;26;20070;-81
2024/04/19 05:26:59;;;;;;;4.88;3.03;;;8.20;99.90;;;;;;5380979;26;20008;-81
2024/04/19 05:29:29;;;;;;;7.00;5.00;;;8.20;99.90;;;;;;5381037;26;20000;-80
2024/04/19 05:31:56;;;;;;;7.00;4.63;;;8.30;99.90;;;;;;5351728;26;19996;-80
2024/04/19 05:34:23;;;;;;;5.55;3.95;;;8.30;99.90;;;;;;5351417;26;20402;-80
2024/04/19 05:36:50;;;;;;;6.20;4.35;;;8.30;99.90;;;;;;5380231;26;20004;-80
2024/04/19 05:39:17;;;;;;;5.93;4.25;;;8.40;99.90;;;;;;5351695;26;20310;-80
2024/04/19 05:41:47;;;;;;;5.97;4.10;;;8.40;99.90;;;;;;5380707;26;20467;-80
2024/04/19 05:44:18;;;;;;;4.93;3.67;;;8.50;99.90;;;;;;5380214;26;20468;-80
2024/04/19 05:46:46;;;;;;;5.57;3.75;;;8.50;99.90;;;;;;5380530;26;20459;-80
2024/04/19 05:49:16;;;;;;;5.38;4.28;;;8.50;99.90;;;;;;5345525;26;20005;-80
2024/04/19 05:51:46;;;;;;;6.43;4.40;;;8.60;99.90;;;;;;5337415;26;20000;-82
2024/04/19 05:54:16;;;;;;;5.05;3.83;;;8.60;99.90;;;;;;5352334;26;20000;-81
2024/04/19 05:56:46;;;;;;;5.35;3.15;;;8.70;99.90;;;;;;5380621;26;20015;-81
2024/04/19 05:59:16;;;;;;;5.53;3.55;;;8.70;99.90;;;;;;5380861;26;19996;-80
2024/04/19 06:01:46;;;;;;;7.30;3.70;;;8.80;99.90;;;;;;5380558;26;20444;-80
2024/04/19 06:04:16;;;;;;;6.22;5.00;;;8.80;99.90;;;;;;5409552;26;20403;-80
2024/04/19 06:06:45;;;;;;;6.15;4.00;;;8.90;99.90;;;;;;5409479;26;20102;-81
2024/04/19 06:09:13;;;;;;;7.55;4.07;;;8.90;99.90;;;;;;5351890;26;20012;-80
2024/04/19 06:11:45;;;;;;;5.97;3.92;;;9.00;99.90;;;;;;5331038;26;20004;-80
2024/04/19 06:14:13;;;;;;;5.57;2.63;;;9.00;99.90;;;;;;5318069;26;20001;-82
2024/04/19 06:16:40;;;;;;;5.03;3.50;;;9.00;99.90;;;;;;5345101;26;20041;-84
2024/04/19 06:19:09;;;;;;;5.07;3.22;;;9.10;99.90;;;;;;5366288;26;20024;-81
2024/04/19 06:21:37;;;;;;;5.03;2.90;;;9.10;99.90;;;;;;5379699;26;19996;-82
2024/04/19 06:24:04;;;;;;;5.72;3.33;;;9.10;99.90;;;;;;5351029;26;20000;-82
2024/04/19 06:26:31;;;;;;;5.30;2.83;;;9.10;99.90;;;;;;5379753;26;20022;-81
2024/04/19 06:28:58;;;;;;;4.25;1.98;;;9.20;99.90;;;;;;5350914;26;20485;-82
2024/04/19 06:31:26;;;;;;;4.50;2.30;;;9.20;99.90;;;;;;5379760;26;20402;-82
2024/04/19 06:33:55;;;;;;;4.57;1.70;;;9.20;99.90;;;;;;5350723;26;20012;-82
2024/04/19 06:36:23;;;;;;;2.60;1.50;;;9.20;99.90;;;;;;5379785;26;20416;-82
2024/04/19 06:38:50;;;;;;;4.85;1.60;;;9.20;99.90;;;;;;5379282;26;20000;-82
2024/04/19 06:41:17;;;;;;;3.15;1.52;;;9.20;99.90;;;;;;5380040;26;20000;-82
2024/04/19 06:43:45;;;;;;;3.97;1.15;;;9.30;99.90;;;;;;5379324;26;20008;-82
2024/04/19 06:46:12;;;;;;;3.83;1.55;;;9.40;99.90;;;;;;5350349;26;20073;-81
2024/04/19 06:48:39;;;;;;;5.05;2.20;;;9.40;99.90;;;;;;5379450;26;20011;-81
2024/04/19 06:51:06;;;;;;;7.47;1.75;;;9.40;99.90;;;;;;5373313;26;20001;-81
2024/04/19 06:53:33;;;;;;;5.57;1.83;;;9.50;99.90;;;;;;5365617;26;20000;-80
2024/04/19 06:56:00;;;;;;;4.38;2.10;;;9.50;99.90;;;;;;5379133;26;20356;-82
2024/04/19 06:58:27;;;;;;;4.85;1.80;;;9.60;99.90;;;;;;5379028;26;20005;-81
2024/04/19 07:00:55;;;;;;;4.45;1.10;;;9.70;99.90;;;;;;5378930;26;20011;-81
2024/04/19 07:03:42;;;;;;;3.70;1.17;;;9.70;99.90;;;;;;5354995;26;20004;-82
2024/04/19 07:06:13;;;;;;;4.15;1.20;;;9.80;99.90;;;;;;5351473;26;20074;-81
2024/04/19 07:08:55;;;;;;;3.60;1.35;;;9.80;99.90;;;;;;5379321;26;20478;-82
2024/04/19 07:11:22;;;;;;;3.47;1.63;;;9.90;99.90;;;;;;5349795;26;20016;-80
2024/04/19 07:13:50;;;;;;;2.50;1.27;;;9.90;99.90;;;;;;5378938;26;20006;-81
2024/04/19 07:16:17;;;;;;;4.05;1.30;;;9.90;99.90;;;;;;5349846;26;20060;-81
2024/04/19 07:18:47;;;;;;;2.53;0.95;;;10.00;99.90;;;;;;5378491;26;19997;-81
2024/04/19 07:21:14;;;;;;;2.83;0.93;;;10.00;99.90;;;;;;5378944;26;20011;-80
2024/04/19 07:23:41;;;;;;;4.95;1.65;;;10.00;99.90;;;;;;5378925;26;20000;-80
2024/04/19 07:26:09;;;;;;;3.40;0.80;;;10.10;99.90;;;;;;5378648;26;20001;-81
2024/04/19 07:28:36;;;;;;;4.07;1.10;;;10.20;99.90;;;;;;5402603;26;20000;-80
2024/04/19 07:31:03;;;;;;;5.30;0.68;;;10.20;99.90;;;;;;5373735;26;20515;-80
2024/04/19 07:33:30;;;;;;;3.13;1.10;;;10.30;99.90;;;;;;5373891;26;20031;-80
2024/04/19 07:35:57;;;;;;;3.88;1.35;;;10.30;99.90;;;;;;5382066;26;20024;-81
2024/04/19 07:38:25;;;;;;;6.82;1.35;;;10.40;99.90;;;;;;5381892;26;20329;-81
2024/04/19 07:40:52;;;;;;;6.68;1.73;;;10.40;99.90;;;;;;5381942;26;20475;-80
2024/04/19 07:43:19;;;;;;;7.75;2.03;;;10.30;99.90;;;;;;5382156;26;20004;-81
2024/04/19 07:45:46;;;;;;;5.57;1.70;;;10.30;99.90;;;;;;5353289;26;20455;-81
2024/04/19 07:48:16;;;;;;;5.95;1.90;;;10.20;99.90;;;;;;5353179;26;20004;-79
2024/04/19 07:50:45;;;;;;;4.97;2.05;;;10.20;99.90;;;;;;5353927;26;20115;-84
2024/04/19 07:53:18;;;;;;;7.47;1.70;;;10.20;99.90;;;;;;5411596;26;20070;-80
2024/04/19 07:55:45;;;;;;;4.25;1.52;;;10.10;99.90;;;;;;5354254;26;20046;-84
2024/04/19 07:58:15;;;;;;;8.23;1.48;;;10.00;99.90;;;;;;5353395;26;20008;-83
2024/04/19 08:00:48;;;;;;;3.00;0.98;;;9.90;99.90;;;;;;5382069;26;20004;-79
2024/04/19 08:03:15;;;;;;;3.88;0.70;;;9.80;99.90;;;;;;5381855;26;20000;-80
2024/04/19 08:05:42;;;;;;;2.42;0.70;;;9.60;99.90;;;;;;5381575;26;20000;-78
2024/04/19 08:08:09;;;;;;;4.15;0.55;;;9.60;99.90;;;;;;5381573;26;19996;-79
2024/04/19 08:10:39;;;;;;;2.38;0.40;;;9.50;99.90;;;;;;5353381;26;20012;-79
2024/04/19 08:13:08;;;;;;;2.15;0.40;;;9.50;99.90;;;;;;5346898;26;20001;-79
2024/04/19 08:15:35;;;;;;;1.85;0.40;;;9.40;99.90;;;;;;5369055;26;20000;-79
2024/04/19 08:18:03;;;;;;;0.98;0.35;;;9.30;99.90;;;;;;5346632;26;20005;-78
2024/04/19 08:20:31;;;;;;;4.30;0.30;;;9.20;99.90;;;;;;5381504;26;20000;-79
2024/04/19 08:22:58;;;;;;;2.38;0.40;;;9.20;99.90;;;;;;5381665;26;20001;-79
2024/04/19 08:25:25;;;;;;;2.17;0.60;;;9.30;99.90;;;;;;5352892;26;20016;-79
2024/04/19 08:27:53;;;;;;;2.67;0.38;;;9.30;99.90;;;;;;5381407;26;20074;-79
2024/04/19 08:30:20;;;;;;;2.13;0.30;;;9.40;99.90;;;;;;5352769;26;20460;-78
2024/04/19 08:32:47;;;;;;;2.58;0.22;;;9.50;99.90;;;;;;5323932;26;20007;-78
2024/04/19 08:35:14;;;;;;;0.68;0.10;;;9.60;99.90;;;;;;5383362;26;20000;-78
2024/04/19 08:37:42;;;;;;;0.93;0.20;;;9.60;99.90;;;;;;5381258;26;20015;-78
2024/04/19 08:40:12;;;;;;;2.67;0.57;;;9.70;99.90;;;;;;5381251;26;20008;-79
2024/04/19 08:42:42;;;;;;;1.45;0.40;;;9.80;99.90;;;;;;5398967;26;20005;-80
2024/04/19 08:45:19;;;;;;;2.15;1.15;;;9.90;99.90;;;;;;5410331;26;20570;-78
2024/04/19 08:47:49;;;;;;;2.83;0.50;;;9.90;99.90;;;;;;5329234;26;20336;-78
2024/04/19 08:50:17;;;;;;;11.23;0.70;;;9.90;99.90;;;;;;5381032;26;20004;-78
2024/04/19 08:52:47;;;;;;;3.13;0.57;;;9.90;99.90;;;;;;5381034;26;20004;-77
2024/04/19 08:55:37;;;;;;;3.10;0.40;;;9.90;99.90;;;;;;5367724;26;20012;-78
2024/04/19 08:58:18;;;;;;;2.15;0.50;;;9.80;99.90;;;;;;5521738;25;20352;-86
2024/04/19 09:00:46;;;;;;;1.02;0.30;;;9.90;99.90;;;;;;5451017;26;19998;-77
2024/04/19 09:03:14;;;;;;;1.08;0.30;;;10.00;99.90;;;;;;5430944;25;19993;-80
2024/04/19 09:05:42;;;;;;;1.20;0.40;;;10.10;99.90;;;;;;5516408;25;19998;-79
2024/04/19 09:08:10;;;;;;;2.08;0.60;;;10.20;99.90;;;;;;5500136;25;19997;-80
2024/04/19 09:10:41;;;;;;;2.70;0.75;;;10.20;99.90;;;;;;5494840;25;20069;-82
2024/04/19 09:13:08;;;;;;;2.00;0.60;;;10.20;99.90;;;;;;5476704;26;20002;-81
2024/04/19 09:15:37;;;;;;;1.30;0.38;;;10.20;99.90;;;;;;5424908;26;20019;-81
2024/04/19 09:18:05;;;;;;;1.52;0.50;;;10.20;99.90;;;;;;5504433;26;20025;-81
2024/04/19 09:20:32;;;;;;;1.90;0.50;;;10.20;99.90;;;;;;5513062;25;20465;-80
2024/04/19 09:22:59;;;;;;;2.95;0.50;;;10.30;99.90;;;;;;5480317;26;20041;-81
2024/04/19 09:25:26;;;;;;;1.00;0.50;;;10.30;99.90;;;;;;5469649;26;20031;-81
2024/04/19 09:27:55;;;;;;;1.63;0.45;;;10.20;99.90;;;;;;5514421;25;20001;-82
2024/04/19 09:30:23;;;;;;;1.42;0.60;;;10.00;99.90;;;;;;5474906;26;20002;-89
2024/04/19 09:32:51;;;;;;;0.77;0.32;;;9.90;99.90;;;;;;5476628;26;20001;-86
2024/04/19 09:35:23;;;;;;;1.13;0.35;;;9.90;99.90;;;;;;5474228;26;20014;-87
2024/04/19 09:37:53;;;;;;;1.88;0.30;;;9.90;99.90;;;;;;5459693;26;20018;-88
2024/04/19 09:40:25;;;;;;;0.95;0.30;;;10.10;99.90;;;;;;5498382;26;20394;-89
2024/04/19 09:42:59;;;;;;;2.03;0.20;;;10.20;99.90;;;;;;5496989;25;20475;-87
2024/04/19 09:45:28;;;;;;;2.08;0.30;;;10.20;99.90;;;;;;5517965;25;20024;-86
2024/04/19 09:47:57;;;;;;;0.70;0.20;;;10.20;99.90;;;;;;5524105;25;20006;-88
2024/04/19 09:50:35;;;;;;;2.45;0.30;;;10.30;99.90;;;;;;5525018;25;20468;-86
2024/04/19 09:53:04;;;;;;;1.90;0.20;;;10.40;99.90;;;;;;5460851;26;20390;-88
2024/04/19 09:55:45;;;;;;;1.08;0.30;;;10.50;99.90;;;;;;5464994;26;20034;-87
2024/04/19 09:58:14;;;;;;;0.57;0.20;;;10.70;99.90;;;;;;5438757;25;20472;-85
2024/04/19 10:00:46;;;;;;;2.10;0.30;;;10.80;99.90;;;;;;5465920;25;20520;-85
2024/04/19 10:03:17;;;;;;;;;;;10.80;99.90;;;;;;5500723;26;20338;-83
2024/04/19 10:05:46;;;;;;;1.00;0.10;;;10.90;99.90;;;;;;5501436;25;19932;-83
2024/04/19 10:08:15;;;;;;;2.53;0.20;;;11.00;99.90;;;;;;5469272;26;20466;-81
2024/04/19 10:10:42;;;;;;;1.10;0.20;;;11.00;99.90;;;;;;5490415;26;20523;-83
2024/04/19 10:13:12;;;;;;;0.32;0.10;;;11.10;99.90;;;;;;5460218;26;20496;-83
2024/04/19 10:15:39;;;;;;;1.08;0.20;;;11.30;99.90;;;;;;5422231;26;19998;-85
2024/04/19 10:18:07;;;;;;;2.10;0.30;;;11.60;99.90;;;;;;5462420;26;20074;-85
2024/04/19 10:20:41;;;;;;;0.55;0.15;;;11.70;99.90;;;;;;5467888;26;19993;-84
2024/04/19 10:23:14;;;;;;;1.38;0.10;;;11.70;99.90;;;;;;5488301;25;19999;-85
2024/04/19 10:25:44;;;;;;;1.50;0.32;;;11.60;99.90;;;;;;5395125;26;20006;-86
2024/04/19 10:28:11;;;;;;;0.88;0.20;;;11.40;99.90;;;;;;5441779;26;19999;-85
2024/04/19 10:30:45;;;;;;;0.30;0.10;;;11.30;99.90;;;;;;5394898;26;19999;-85
2024/04/19 10:33:15;;;;;;;0.25;0.13;;;11.30;99.90;;;;;;5462414;26;19999;-86
2024/04/19 10:35:48;;;;;;;0.98;0.30;;;11.30;99.90;;;;;;5468037;26;20520;-85
2024/04/19 10:38:19;;;;;;;0.82;0.13;;;11.40;99.90;;;;;;5438227;26;20393;-83
2024/04/19 10:40:46;;;;;;;0.50;0.20;;;11.50;99.90;;;;;;5393820;26;19998;-83
2024/04/19 10:43:14;;;;;;;1.38;0.10;;;11.40;99.90;;;;;;5470062;26;20046;-82
2024/04/19 10:45:46;;;;;;;1.95;0.40;;;11.30;99.90;;;;;;5427985;26;20003;-83
2024/04/19 10:48:14;;;;;;;1.25;0.20;;;11.30;99.90;;;;;;5490255;25;20069;-83
2024/04/19 10:50:43;;;;;;;0.55;0.10;;;11.20;99.90;;;;;;5495290;26;20014;-83
2024/04/19 10:53:12;;;;;;;1.13;0.20;;;11.10;99.90;;;;;;5445295;26;20075;-81
2024/04/19 10:55:40;;;;;;;0.65;0.20;;;10.90;99.90;;;;;;5435797;26;20008;-83
2024/04/19 10:58:08;;;;;;;0.77;0.10;;;10.60;99.90;;;;;;5465565;25;20020;-83
2024/04/19 11:00:35;;;;;;;1.33;0.20;;;10.40;99.90;;;;;;5493714;26;20006;-84
2024/04/19 11:03:06;;;;;;;1.33;0.40;;;10.30;99.90;;;;;;5458007;26;20075;-83
2024/04/19 11:05:46;;;;;;;1.77;0.17;;;9.90;99.90;;;;;;5502167;26;20032;-83
2024/04/19 11:08:13;;;;;;;0.35;0.25;;;9.50;99.90;;;;;;5453977;26;20003;-85
2024/04/19 11:10:42;;;;;;;1.45;0.10;;;9.10;99.90;;;;;;5421041;26;20007;-83
2024/04/19 11:13:13;;;;;;;0.65;0.10;;;8.90;99.90;;;;;;5503933;26;20377;-84
2024/04/19 11:15:41;;;;;;;0.65;0.10;;;8.70;99.90;;;;;;5487232;26;20074;-84
2024/04/19 11:18:25;;;;;;;0.77;0.10;;;8.60;99.90;;;;;;5441488;26;20003;-83
2024/04/19 11:20:53;;;;;;;0.22;0.10;;;8.70;99.90;;;;;;5470250;26;20002;-82
2024/04/19 11:23:33;;;;;;;0.40;0.10;;;8.80;99.90;;;;;;5455986;26;20003;-82
2024/04/19 11:26:01;;;;;;;1.10;0.10;;;9.00;99.90;;;;;;5417368;26;20031;-84
2024/04/19 11:28:28;;;;;;;1.25;0.20;;;9.30;99.90;;;;;;5470514;26;19997;-83
2024/04/19 11:30:57;;;;;;;0.98;0.17;;;9.60;99.90;;;;;;5452361;26;20002;-82
2024/04/19 11:33:25;;;;;;;1.08;0.20;;;10.00;99.90;;;;;;5446782;26;20002;-83
2024/04/19 11:35:52;;;;;;;1.20;0.20;;;10.70;99.90;;;;;;5387806;26;19999;-82
2024/04/19 11:38:20;;;;;;;3.22;0.20;;;11.10;99.90;;;;;;5446270;26;20013;-82
2024/04/19 11:40:47;;;;;;;1.05;0.20;;;10.90;99.90;;;;;;5377831;26;20002;-83
2024/04/19 11:43:15;;;;;;;0.60;0.17;;;10.60;99.90;;;;;;5455328;26;20012;-81
2024/04/19 11:45:46;;;;;;;2.67;0.30;;;10.40;99.90;;;;;;5458238;26;20078;-81
2024/04/19 11:48:21;;;;;;;1.13;0.20;;;10.30;99.90;;;;;;5422576;26;20075;-83
2024/04/19 11:50:49;;;;;;;1.33;0.38;;;10.40;99.90;;;;;;5448063;26;20002;-83
2024/04/19 11:53:16;;;;;;;1.02;0.50;;;10.40;99.90;;;;;;5472142;26;20005;-82
2024/04/19 11:55:50;;;;;;;0.88;0.13;;;10.30;99.90;;;;;;5468169;26;20000;-83
2024/04/19 11:58:18;;;;;;;2.30;0.20;;;10.20;99.90;;;;;;5474224;26;19997;-83
2024/04/19 12:00:45;;;;;;;2.90;0.28;;;10.00;99.90;;;;;;5488342;26;20005;-83
2024/04/19 12:03:16;;;;;;;1.77;0.15;;;9.90;99.90;;;;;;5392833;26;19999;-82
2024/04/19 12:05:46;;;;;;;0.60;0.20;;;9.80;99.90;;;;;;5482828;26;20026;-82
2024/04/19 12:08:16;;;;;;;0.73;0.22;;;9.90;99.90;;;;;;5452685;26;20039;-83
2024/04/19 12:10:44;;;;;;;2.40;0.20;;;10.00;99.90;;;;;;5460609;26;19995;-81
2024/04/19 12:13:12;;;;;;;1.60;0.15;;;10.00;99.90;;;;;;5437468;26;20446;-82
2024/04/19 12:16:01;;;;;;;7.00;0.63;;;10.10;99.90;;;;;;5468242;26;20005;-83
2024/04/19 12:18:48;;;;;;;2.00;0.30;;;10.30;99.90;;;;;;5463833;26;20006;-83
2024/04/19 12:21:17;;;;;;;2.63;0.38;;;10.60;99.90;;;;;;5483382;26;20002;-83
2024/04/19 12:23:45;;;;;;;2.72;0.30;;;10.90;99.90;;;;;;5452066;26;19999;-84
2024/04/19 12:26:15;;;;;;;2.17;0.20;;;11.00;99.90;;;;;;5506538;26;19993;-83
2024/04/19 12:28:44;;;;;;;1.63;0.20;;;10.90;99.90;;;;;;5462335;26;20010;-84
2024/04/19 12:31:22;;;;;;;3.65;0.50;;;10.70;99.90;;;;;;5455507;26;20346;-81
2024/04/19 12:33:51;;;;;;;0.88;0.10;;;10.40;99.90;;;;;;5509391;26;20002;-86
2024/04/19 12:36:19;;;;;;;1.40;0.20;;;10.30;99.90;;;;;;5460801;26;20333;-84
2024/04/19 12:38:48;;;;;;;1.95;0.20;;;10.20;99.90;;;;;;5465813;26;20450;-84
2024/04/19 12:41:16;;;;;;;1.02;0.20;;;10.10;99.90;;;;;;5481727;26;20038;-86
2024/04/19 12:43:44;;;;;;;1.17;0.10;;;10.00;99.90;;;;;;5467142;26;20101;-84
2024/04/19 12:46:11;;;;;;;2.58;0.25;;;9.90;99.90;;;;;;5458190;26;20026;-86
2024/04/19 12:48:38;;;;;;;1.80;0.22;;;10.00;99.90;;;;;;5489882;26;20012;-86
2024/04/19 12:51:06;;;;;;;2.92;0.20;;;10.30;99.90;;;;;;5456966;26;20014;-85
2024/04/19 12:53:33;;;;;;;3.17;0.68;;;10.40;99.90;;;;;;5516582;26;20005;-84
2024/04/19 12:56:00;;;;;;;1.88;0.40;;;10.30;99.90;;;;;;5460029;26;20075;-83
2024/04/19 12:58:28;;;;;;;2.92;0.32;;;9.90;99.90;;;;;;5438023;26;20013;-84
2024/04/19 13:01:01;;;;;;;1.13;0.20;;;9.40;99.90;;;;;;5430386;26;20009;-83
2024/04/19 13:03:29;;;;;;;0.32;0.10;;;9.20;99.90;;;;;;5461339;26;20463;-83
2024/04/19 13:05:57;;;;;;;0.52;0.10;;;9.10;99.90;;;;;;5480553;26;20002;-82
2024/04/19 13:08:24;;;;;;;1.52;0.20;;;9.20;99.90;;;;;;5412171;26;20003;-82